sensor_id;sensor_type;location;lat;lon;timestamp;temperature;humidity
73777;DHT22;62088;50.240;2.696;2022-12-29T00:00:55;10.90;86.20
73777;DHT22;62088;50.240;2.696;2022-12-29T00:03:22;10.90;86.20
73777;DHT22;62088;50.240;2.696;2022-12-29T00:05:56;10.90;86.20
73777;DHT22;62088;50.240;2.696;2022-12-29T00:08:24;10.90;86.30
73777;DHT22;62088;50.240;2.696;2022-12-29T00:11:15;10.90;86.30
73777;DHT22;62088;50.240;2.696;2022-12-29T00:13:42;10.90;86.30
73777;DHT22;62088;50.240;2.696;2022-12-29T00:16:29;10.90;86.30
73777;DHT22;62088;50.240;2.696;2022-12-29T00:18:57;10.90;86.30
73777;DHT22;62088;50.240;2.696;2022-12-29T00:21:24;10.90;86.20
73777;DHT22;62088;50.240;2.696;2022-12-29T00:24:16;10.90;86.20
73777;DHT22;62088;50.240;2.696;2022-12-29T00:29:49;10.90;85.80
73777;DHT22;62088;50.240;2.696;2022-12-29T00:32:34;10.90;85.70
73777;DHT22;62088;50.240;2.696;2022-12-29T00:35:33;10.90;85.70
73777;DHT22;62088;50.240;2.696;2022-12-29T00:38:04;10.80;85.50
73777;DHT22;62088;50.240;2.696;2022-12-29T00:40:50;10.90;85.40
73777;DHT22;62088;50.240;2.696;2022-12-29T00:43:49;10.90;85.00
73777;DHT22;62088;50.240;2.696;2022-12-29T00:46:35;10.80;85.00
73777;DHT22;62088;50.240;2.696;2022-12-29T00:49:03;10.80;84.90
73777;DHT22;62088;50.240;2.696;2022-12-29T00:51:48;10.70;84.90
73777;DHT22;62088;50.240;2.696;2022-12-29T00:54:16;10.70;85.00
73777;DHT22;62088;50.240;2.696;2022-12-29T00:56:49;10.70;85.10
73777;DHT22;62088;50.240;2.696;2022-12-29T00:59:17;10.70;85.10
73777;DHT22;62088;50.240;2.696;2022-12-29T01:01:45;10.60;85.20
73777;DHT22;62088;50.240;2.696;2022-12-29T01:04:12;10.60;85.20
73777;DHT22;62088;50.240;2.696;2022-12-29T01:06:40;10.60;85.30
73777;DHT22;62088;50.240;2.696;2022-12-29T01:09:08;10.60;85.40
73777;DHT22;62088;50.240;2.696;2022-12-29T01:11:54;10.50;85.50
73777;DHT22;62088;50.240;2.696;2022-12-29T01:14:22;10.50;85.70
73777;DHT22;62088;50.240;2.696;2022-12-29T01:16:50;10.50;85.80
73777;DHT22;62088;50.240;2.696;2022-12-29T01:19:18;10.50;86.10
73777;DHT22;62088;50.240;2.696;2022-12-29T01:21:46;10.50;86.20
73777;DHT22;62088;50.240;2.696;2022-12-29T01:24:14;10.50;86.40
73777;DHT22;62088;50.240;2.696;2022-12-29T01:26:42;10.40;86.60
73777;DHT22;62088;50.240;2.696;2022-12-29T01:29:09;10.50;86.70
73777;DHT22;62088;50.240;2.696;2022-12-29T01:31:37;10.40;86.80
73777;DHT22;62088;50.240;2.696;2022-12-29T01:34:04;10.50;86.80
73777;DHT22;62088;50.240;2.696;2022-12-29T01:36:31;10.40;86.90
73777;DHT22;62088;50.240;2.696;2022-12-29T01:38:58;10.50;87.00
73777;DHT22;62088;50.240;2.696;2022-12-29T01:41:26;10.40;87.00
73777;DHT22;62088;50.240;2.696;2022-12-29T01:43:58;10.40;87.10
73777;DHT22;62088;50.240;2.696;2022-12-29T01:46:41;10.40;87.20
73777;DHT22;62088;50.240;2.696;2022-12-29T01:49:11;10.40;87.20
73777;DHT22;62088;50.240;2.696;2022-12-29T01:51:46;10.40;87.30
73777;DHT22;62088;50.240;2.696;2022-12-29T01:54:24;10.40;87.30
73777;DHT22;62088;50.240;2.696;2022-12-29T01:56:55;10.40;87.30
73777;DHT22;62088;50.240;2.696;2022-12-29T01:59:31;10.40;87.00
73777;DHT22;62088;50.240;2.696;2022-12-29T02:02:00;10.40;86.80
73777;DHT22;62088;50.240;2.696;2022-12-29T02:04:30;10.40;86.50
73777;DHT22;62088;50.240;2.696;2022-12-29T02:07:03;10.30;86.40
73777;DHT22;62088;50.240;2.696;2022-12-29T02:09:31;10.30;86.10
73777;DHT22;62088;50.240;2.696;2022-12-29T02:11:58;10.30;86.00
73777;DHT22;62088;50.240;2.696;2022-12-29T02:14:26;10.30;86.00
73777;DHT22;62088;50.240;2.696;2022-12-29T02:25:49;10.20;85.60
73777;DHT22;62088;50.240;2.696;2022-12-29T02:31:52;10.10;85.40
73777;DHT22;62088;50.240;2.696;2022-12-29T02:34:50;10.00;85.30
73777;DHT22;62088;50.240;2.696;2022-12-29T02:37:36;10.00;85.20
73777;DHT22;62088;50.240;2.696;2022-12-29T02:40:07;10.00;85.10
73777;DHT22;62088;50.240;2.696;2022-12-29T02:48:30;9.90;84.90
73777;DHT22;62088;50.240;2.696;2022-12-29T02:51:02;9.90;84.90
73777;DHT22;62088;50.240;2.696;2022-12-29T02:53:33;9.90;84.90
73777;DHT22;62088;50.240;2.696;2022-12-29T02:56:20;9.80;84.80
73777;DHT22;62088;50.240;2.696;2022-12-29T02:58:47;9.80;84.80
73777;DHT22;62088;50.240;2.696;2022-12-29T03:09:40;9.70;85.30
73777;DHT22;62088;50.240;2.696;2022-12-29T03:14:59;9.70;85.40
73777;DHT22;62088;50.240;2.696;2022-12-29T03:18:20;9.70;85.50
73777;DHT22;62088;50.240;2.696;2022-12-29T03:20:58;9.70;85.50
73777;DHT22;62088;50.240;2.696;2022-12-29T03:23:27;9.60;85.40
73777;DHT22;62088;50.240;2.696;2022-12-29T03:25:58;9.60;85.40
73777;DHT22;62088;50.240;2.696;2022-12-29T03:28:32;9.70;85.50
73777;DHT22;62088;50.240;2.696;2022-12-29T03:31:03;9.60;85.50
73777;DHT22;62088;50.240;2.696;2022-12-29T03:33:32;9.60;85.50
73777;DHT22;62088;50.240;2.696;2022-12-29T03:36:04;9.60;85.50
73777;DHT22;62088;50.240;2.696;2022-12-29T03:41:09;9.70;85.60
73777;DHT22;62088;50.240;2.696;2022-12-29T03:43:38;9.70;85.60
73777;DHT22;62088;50.240;2.696;2022-12-29T03:46:05;9.70;85.70
73777;DHT22;62088;50.240;2.696;2022-12-29T03:48:33;9.60;85.70
73777;DHT22;62088;50.240;2.696;2022-12-29T03:51:00;9.70;85.70
73777;DHT22;62088;50.240;2.696;2022-12-29T03:53:27;9.70;85.60
73777;DHT22;62088;50.240;2.696;2022-12-29T03:55:54;9.70;85.50
73777;DHT22;62088;50.240;2.696;2022-12-29T03:58:22;9.80;85.30
73777;DHT22;62088;50.240;2.696;2022-12-29T04:01:04;9.70;85.20
73777;DHT22;62088;50.240;2.696;2022-12-29T04:03:35;9.80;85.00
73777;DHT22;62088;50.240;2.696;2022-12-29T04:06:03;9.80;84.90
73777;DHT22;62088;50.240;2.696;2022-12-29T04:08:39;9.80;84.80
73777;DHT22;62088;50.240;2.696;2022-12-29T04:11:06;9.80;84.80
73777;DHT22;62088;50.240;2.696;2022-12-29T04:13:33;9.80;84.60
73777;DHT22;62088;50.240;2.696;2022-12-29T04:16:00;9.80;84.40
73777;DHT22;62088;50.240;2.696;2022-12-29T04:18:28;9.80;84.30
73777;DHT22;62088;50.240;2.696;2022-12-29T04:20:55;9.80;84.20
73777;DHT22;62088;50.240;2.696;2022-12-29T04:23:33;9.80;84.20
73777;DHT22;62088;50.240;2.696;2022-12-29T04:26:03;9.70;84.20
73777;DHT22;62088;50.240;2.696;2022-12-29T04:28:30;9.70;84.10
73777;DHT22;62088;50.240;2.696;2022-12-29T04:31:29;9.70;84.20
73777;DHT22;62088;50.240;2.696;2022-12-29T04:33:58;9.70;84.20
73777;DHT22;62088;50.240;2.696;2022-12-29T04:36:27;9.70;84.00
73777;DHT22;62088;50.240;2.696;2022-12-29T04:38:56;9.70;84.00
73777;DHT22;62088;50.240;2.696;2022-12-29T04:41:24;9.70;83.90
73777;DHT22;62088;50.240;2.696;2022-12-29T04:43:52;9.70;83.90
73777;DHT22;62088;50.240;2.696;2022-12-29T04:46:48;9.70;83.90
73777;DHT22;62088;50.240;2.696;2022-12-29T04:49:27;9.70;83.90
73777;DHT22;62088;50.240;2.696;2022-12-29T04:52:15;9.70;83.90
73777;DHT22;62088;50.240;2.696;2022-12-29T04:54:45;9.70;83.90
73777;DHT22;62088;50.240;2.696;2022-12-29T04:57:17;9.70;83.80
73777;DHT22;62088;50.240;2.696;2022-12-29T04:59:49;9.60;83.80
73777;DHT22;62088;50.240;2.696;2022-12-29T05:02:16;9.70;83.70
73777;DHT22;62088;50.240;2.696;2022-12-29T05:04:45;9.60;83.70
73777;DHT22;62088;50.240;2.696;2022-12-29T05:07:13;9.60;83.60
73777;DHT22;62088;50.240;2.696;2022-12-29T05:09:40;9.60;83.60
73777;DHT22;62088;50.240;2.696;2022-12-29T05:12:07;9.60;83.50
73777;DHT22;62088;50.240;2.696;2022-12-29T05:14:39;9.60;83.50
73777;DHT22;62088;50.240;2.696;2022-12-29T05:17:07;9.60;83.40
73777;DHT22;62088;50.240;2.696;2022-12-29T05:19:34;9.60;83.40
73777;DHT22;62088;50.240;2.696;2022-12-29T05:22:02;9.60;83.40
73777;DHT22;62088;50.240;2.696;2022-12-29T05:24:29;9.60;83.50
73777;DHT22;62088;50.240;2.696;2022-12-29T05:26:57;9.60;83.40
73777;DHT22;62088;50.240;2.696;2022-12-29T05:29:37;9.60;83.40
73777;DHT22;62088;50.240;2.696;2022-12-29T05:32:04;9.60;83.30
73777;DHT22;62088;50.240;2.696;2022-12-29T05:34:31;9.70;83.20
73777;DHT22;62088;50.240;2.696;2022-12-29T05:36:59;9.70;83.00
73777;DHT22;62088;50.240;2.696;2022-12-29T05:39:26;9.70;82.90
73777;DHT22;62088;50.240;2.696;2022-12-29T05:41:57;9.70;82.80
73777;DHT22;62088;50.240;2.696;2022-12-29T05:44:32;9.70;82.70
73777;DHT22;62088;50.240;2.696;2022-12-29T05:47:19;9.70;82.60
73777;DHT22;62088;50.240;2.696;2022-12-29T05:49:59;9.70;82.50
73777;DHT22;62088;50.240;2.696;2022-12-29T05:52:46;9.70;82.40
73777;DHT22;62088;50.240;2.696;2022-12-29T05:55:14;9.70;82.30
73777;DHT22;62088;50.240;2.696;2022-12-29T05:57:43;9.70;82.10
73777;DHT22;62088;50.240;2.696;2022-12-29T06:00:13;9.70;82.20
73777;DHT22;62088;50.240;2.696;2022-12-29T06:02:42;9.80;82.10
73777;DHT22;62088;50.240;2.696;2022-12-29T06:05:09;9.70;82.00
73777;DHT22;62088;50.240;2.696;2022-12-29T06:07:38;9.70;81.90
73777;DHT22;62088;50.240;2.696;2022-12-29T06:10:06;9.70;81.90
73777;DHT22;62088;50.240;2.696;2022-12-29T06:12:42;9.70;81.70
73777;DHT22;62088;50.240;2.696;2022-12-29T06:15:09;9.70;81.70
73777;DHT22;62088;50.240;2.696;2022-12-29T06:17:39;9.70;81.70
73777;DHT22;62088;50.240;2.696;2022-12-29T06:20:08;9.70;81.60
73777;DHT22;62088;50.240;2.696;2022-12-29T06:22:35;9.70;81.50
73777;DHT22;62088;50.240;2.696;2022-12-29T06:25:03;9.70;81.40
73777;DHT22;62088;50.240;2.696;2022-12-29T06:27:33;9.70;81.20
73777;DHT22;62088;50.240;2.696;2022-12-29T06:30:00;9.70;81.20
73777;DHT22;62088;50.240;2.696;2022-12-29T06:32:27;9.60;81.00
73777;DHT22;62088;50.240;2.696;2022-12-29T06:35:00;9.70;81.00
73777;DHT22;62088;50.240;2.696;2022-12-29T06:37:27;9.60;80.40
73777;DHT22;62088;50.240;2.696;2022-12-29T06:39:54;9.60;80.40
73777;DHT22;62088;50.240;2.696;2022-12-29T06:42:25;9.60;80.40
73777;DHT22;62088;50.240;2.696;2022-12-29T06:45:10;9.60;80.40
73777;DHT22;62088;50.240;2.696;2022-12-29T06:47:37;9.60;80.00
73777;DHT22;62088;50.240;2.696;2022-12-29T06:50:05;9.50;79.70
73777;DHT22;62088;50.240;2.696;2022-12-29T06:52:32;9.50;79.60
73777;DHT22;62088;50.240;2.696;2022-12-29T06:54:59;9.50;79.60
73777;DHT22;62088;50.240;2.696;2022-12-29T06:57:26;9.50;79.50
73777;DHT22;62088;50.240;2.696;2022-12-29T06:59:53;9.40;79.30
73777;DHT22;62088;50.240;2.696;2022-12-29T07:02:22;9.40;79.30
73777;DHT22;62088;50.240;2.696;2022-12-29T07:04:52;9.40;79.40
73777;DHT22;62088;50.240;2.696;2022-12-29T07:07:20;9.40;79.50
73777;DHT22;62088;50.240;2.696;2022-12-29T07:09:47;9.40;79.50
73777;DHT22;62088;50.240;2.696;2022-12-29T07:12:14;9.40;79.60
73777;DHT22;62088;50.240;2.696;2022-12-29T07:14:41;9.40;79.70
73777;DHT22;62088;50.240;2.696;2022-12-29T07:17:09;9.40;79.40
73777;DHT22;62088;50.240;2.696;2022-12-29T07:19:36;9.40;79.20
73777;DHT22;62088;50.240;2.696;2022-12-29T07:22:03;9.40;79.30
73777;DHT22;62088;50.240;2.696;2022-12-29T07:24:30;9.40;79.30
73777;DHT22;62088;50.240;2.696;2022-12-29T07:26:57;9.50;79.30
73777;DHT22;62088;50.240;2.696;2022-12-29T07:29:24;9.50;79.20
73777;DHT22;62088;50.240;2.696;2022-12-29T07:31:51;9.40;79.20
73777;DHT22;62088;50.240;2.696;2022-12-29T07:34:20;9.40;78.80
73777;DHT22;62088;50.240;2.696;2022-12-29T07:36:47;9.50;78.80
73777;DHT22;62088;50.240;2.696;2022-12-29T07:39:14;9.50;78.70
73777;DHT22;62088;50.240;2.696;2022-12-29T07:41:41;9.50;78.80
73777;DHT22;62088;50.240;2.696;2022-12-29T07:44:15;9.50;78.60
73777;DHT22;62088;50.240;2.696;2022-12-29T07:47:00;9.40;78.70
73777;DHT22;62088;50.240;2.696;2022-12-29T07:49:28;9.50;78.20
73777;DHT22;62088;50.240;2.696;2022-12-29T07:51:55;9.50;78.50
73777;DHT22;62088;50.240;2.696;2022-12-29T07:54:22;9.50;78.50
73777;DHT22;62088;50.240;2.696;2022-12-29T07:56:50;9.50;78.30
73777;DHT22;62088;50.240;2.696;2022-12-29T07:59:17;9.50;78.50
73777;DHT22;62088;50.240;2.696;2022-12-29T08:01:44;9.50;78.20
73777;DHT22;62088;50.240;2.696;2022-12-29T08:04:12;9.50;78.40
73777;DHT22;62088;50.240;2.696;2022-12-29T08:06:39;9.50;78.20
73777;DHT22;62088;50.240;2.696;2022-12-29T08:09:06;9.50;78.50
73777;DHT22;62088;50.240;2.696;2022-12-29T08:11:42;9.50;78.50
73777;DHT22;62088;50.240;2.696;2022-12-29T08:14:10;9.50;78.50
73777;DHT22;62088;50.240;2.696;2022-12-29T08:16:37;9.50;78.60
73777;DHT22;62088;50.240;2.696;2022-12-29T08:19:04;9.50;78.50
73777;DHT22;62088;50.240;2.696;2022-12-29T08:21:31;9.50;78.50
73777;DHT22;62088;50.240;2.696;2022-12-29T08:23:59;9.50;78.50
73777;DHT22;62088;50.240;2.696;2022-12-29T08:26:26;9.50;78.50
73777;DHT22;62088;50.240;2.696;2022-12-29T08:28:54;9.50;78.60
73777;DHT22;62088;50.240;2.696;2022-12-29T08:31:22;9.60;78.50
73777;DHT22;62088;50.240;2.696;2022-12-29T08:33:50;9.50;78.60
73777;DHT22;62088;50.240;2.696;2022-12-29T08:36:17;9.50;78.60
73777;DHT22;62088;50.240;2.696;2022-12-29T08:38:44;9.50;78.50
73777;DHT22;62088;50.240;2.696;2022-12-29T08:41:11;9.50;78.30
73777;DHT22;62088;50.240;2.696;2022-12-29T08:43:38;9.60;78.40
73777;DHT22;62088;50.240;2.696;2022-12-29T08:46:05;9.50;78.40
73777;DHT22;62088;50.240;2.696;2022-12-29T08:48:32;9.50;78.50
73777;DHT22;62088;50.240;2.696;2022-12-29T08:50:59;9.60;78.60
73777;DHT22;62088;50.240;2.696;2022-12-29T08:53:27;9.60;78.40
73777;DHT22;62088;50.240;2.696;2022-12-29T08:55:59;9.60;78.50
73777;DHT22;62088;50.240;2.696;2022-12-29T08:58:40;9.60;78.60
73777;DHT22;62088;50.240;2.696;2022-12-29T09:01:08;9.60;78.70
73777;DHT22;62088;50.240;2.696;2022-12-29T09:03:36;9.60;78.70
73777;DHT22;62088;50.240;2.696;2022-12-29T09:06:23;9.60;78.70
73777;DHT22;62088;50.240;2.696;2022-12-29T09:08:50;9.60;78.60
73777;DHT22;62088;50.240;2.696;2022-12-29T09:11:22;9.60;78.70
73777;DHT22;62088;50.240;2.696;2022-12-29T09:13:50;9.60;78.70
73777;DHT22;62088;50.240;2.696;2022-12-29T09:16:19;9.60;78.70
73777;DHT22;62088;50.240;2.696;2022-12-29T09:18:47;9.60;78.70
73777;DHT22;62088;50.240;2.696;2022-12-29T09:21:14;9.50;78.60
73777;DHT22;62088;50.240;2.696;2022-12-29T09:23:41;9.50;78.60
73777;DHT22;62088;50.240;2.696;2022-12-29T09:26:08;9.50;78.70
73777;DHT22;62088;50.240;2.696;2022-12-29T09:28:36;9.50;78.70
73777;DHT22;62088;50.240;2.696;2022-12-29T09:31:03;9.50;78.80
73777;DHT22;62088;50.240;2.696;2022-12-29T09:33:30;9.50;79.00
73777;DHT22;62088;50.240;2.696;2022-12-29T09:36:00;9.50;79.10
73777;DHT22;62088;50.240;2.696;2022-12-29T09:38:27;9.50;79.20
73777;DHT22;62088;50.240;2.696;2022-12-29T09:40:59;9.50;79.30
73777;DHT22;62088;50.240;2.696;2022-12-29T09:49:24;9.60;79.00
73777;DHT22;62088;50.240;2.696;2022-12-29T09:52:00;9.60;78.90
73777;DHT22;62088;50.240;2.696;2022-12-29T09:54:36;9.70;78.90
73777;DHT22;62088;50.240;2.696;2022-12-29T09:57:32;9.70;78.90
73777;DHT22;62088;50.240;2.696;2022-12-29T10:00:00;9.70;78.90
73777;DHT22;62088;50.240;2.696;2022-12-29T10:07:55;9.80;79.00
73777;DHT22;62088;50.240;2.696;2022-12-29T10:10:33;9.80;79.10
73777;DHT22;62088;50.240;2.696;2022-12-29T10:13:27;9.80;78.90
73777;DHT22;62088;50.240;2.696;2022-12-29T10:21:39;9.90;78.50
73777;DHT22;62088;50.240;2.696;2022-12-29T10:24:11;9.90;78.50
73777;DHT22;62088;50.240;2.696;2022-12-29T10:26:43;9.90;78.60
73777;DHT22;62088;50.240;2.696;2022-12-29T10:29:20;9.90;78.70
73777;DHT22;62088;50.240;2.696;2022-12-29T10:31:58;9.90;78.90
73777;DHT22;62088;50.240;2.696;2022-12-29T10:37:05;10.00;78.70
73777;DHT22;62088;50.240;2.696;2022-12-29T10:39:48;10.00;78.80
73777;DHT22;62088;50.240;2.696;2022-12-29T10:42:34;10.00;78.30
73777;DHT22;62088;50.240;2.696;2022-12-29T10:45:04;10.00;78.30
73777;DHT22;62088;50.240;2.696;2022-12-29T10:47:49;10.10;78.50
73777;DHT22;62088;50.240;2.696;2022-12-29T10:50:19;10.10;78.60
73777;DHT22;62088;50.240;2.696;2022-12-29T10:52:46;10.00;78.70
73777;DHT22;62088;50.240;2.696;2022-12-29T10:55:24;10.10;78.60
73777;DHT22;62088;50.240;2.696;2022-12-29T10:57:56;10.00;78.60
73777;DHT22;62088;50.240;2.696;2022-12-29T11:00:26;10.00;78.80
73777;DHT22;62088;50.240;2.696;2022-12-29T11:03:18;10.00;78.80
73777;DHT22;62088;50.240;2.696;2022-12-29T11:06:12;10.00;78.90
73777;DHT22;62088;50.240;2.696;2022-12-29T11:09:14;10.00;78.90
73777;DHT22;62088;50.240;2.696;2022-12-29T11:11:38;10.00;78.70
73777;DHT22;62088;50.240;2.696;2022-12-29T11:14:14;10.00;78.60
73777;DHT22;62088;50.240;2.696;2022-12-29T11:16:44;10.00;78.60
73777;DHT22;62088;50.240;2.696;2022-12-29T11:19:32;10.00;78.30
73777;DHT22;62088;50.240;2.696;2022-12-29T11:22:22;10.00;78.30
73777;DHT22;62088;50.240;2.696;2022-12-29T11:24:51;10.00;78.30
73777;DHT22;62088;50.240;2.696;2022-12-29T11:27:23;9.90;78.40
73777;DHT22;62088;50.240;2.696;2022-12-29T11:29:52;10.00;78.40
73777;DHT22;62088;50.240;2.696;2022-12-29T11:32:27;9.90;78.30
73777;DHT22;62088;50.240;2.696;2022-12-29T11:34:57;10.00;78.40
73777;DHT22;62088;50.240;2.696;2022-12-29T11:37:31;10.00;78.30
73777;DHT22;62088;50.240;2.696;2022-12-29T11:40:03;10.00;78.30
73777;DHT22;62088;50.240;2.696;2022-12-29T11:45:19;10.00;78.20
73777;DHT22;62088;50.240;2.696;2022-12-29T11:47:50;10.00;78.10
73777;DHT22;62088;50.240;2.696;2022-12-29T11:50:25;10.00;78.00
73777;DHT22;62088;50.240;2.696;2022-12-29T11:53:15;10.00;78.00
73777;DHT22;62088;50.240;2.696;2022-12-29T11:55:58;10.00;78.00
73777;DHT22;62088;50.240;2.696;2022-12-29T11:58:34;10.00;77.80
73777;DHT22;62088;50.240;2.696;2022-12-29T12:03:37;10.10;77.10
73777;DHT22;62088;50.240;2.696;2022-12-29T12:06:12;10.10;76.40
73777;DHT22;62088;50.240;2.696;2022-12-29T12:08:48;10.10;76.50
73777;DHT22;62088;50.240;2.696;2022-12-29T12:11:29;10.20;76.50
73777;DHT22;62088;50.240;2.696;2022-12-29T12:14:21;10.20;76.50
73777;DHT22;62088;50.240;2.696;2022-12-29T12:17:19;10.30;76.30
73777;DHT22;62088;50.240;2.696;2022-12-29T12:19:59;10.30;75.80
73777;DHT22;62088;50.240;2.696;2022-12-29T12:22:51;10.40;75.30
73777;DHT22;62088;50.240;2.696;2022-12-29T12:25:22;10.40;75.30
73777;DHT22;62088;50.240;2.696;2022-12-29T12:28:16;10.50;75.60
73777;DHT22;62088;50.240;2.696;2022-12-29T12:30:48;10.60;75.90
73777;DHT22;62088;50.240;2.696;2022-12-29T12:33:30;10.60;75.40
73777;DHT22;62088;50.240;2.696;2022-12-29T12:44:09;10.70;75.20
73777;DHT22;62088;50.240;2.696;2022-12-29T12:46:48;10.70;75.60
73777;DHT22;62088;50.240;2.696;2022-12-29T12:55:39;10.40;77.60
73777;DHT22;62088;50.240;2.696;2022-12-29T13:09:53;10.30;79.00
73777;DHT22;62088;50.240;2.696;2022-12-29T13:18:18;10.40;78.70
73777;DHT22;62088;50.240;2.696;2022-12-29T13:23:41;10.40;77.90
73777;DHT22;62088;50.240;2.696;2022-12-29T13:31:50;10.20;76.10
73777;DHT22;62088;50.240;2.696;2022-12-29T13:34:29;10.00;76.30
73777;DHT22;62088;50.240;2.696;2022-12-29T13:37:00;9.90;76.60
73777;DHT22;62088;50.240;2.696;2022-12-29T13:39:34;9.80;77.70
73777;DHT22;62088;50.240;2.696;2022-12-29T13:42:03;9.70;78.30
73777;DHT22;62088;50.240;2.696;2022-12-29T13:49:50;9.50;79.50
73777;DHT22;62088;50.240;2.696;2022-12-29T13:58:34;9.40;80.50
73777;DHT22;62088;50.240;2.696;2022-12-29T14:01:18;9.40;80.70
73777;DHT22;62088;50.240;2.696;2022-12-29T14:03:53;9.40;81.00
73777;DHT22;62088;50.240;2.696;2022-12-29T14:06:29;9.40;81.20
73777;DHT22;62088;50.240;2.696;2022-12-29T14:09:02;9.40;81.20
73777;DHT22;62088;50.240;2.696;2022-12-29T14:11:35;9.40;81.20
73777;DHT22;62088;50.240;2.696;2022-12-29T14:14:29;9.40;81.10
73777;DHT22;62088;50.240;2.696;2022-12-29T14:17:10;9.40;81.10
73777;DHT22;62088;50.240;2.696;2022-12-29T14:19:42;9.40;81.10
73777;DHT22;62088;50.240;2.696;2022-12-29T14:22:11;9.40;81.10
73777;DHT22;62088;50.240;2.696;2022-12-29T14:24:44;9.30;80.90
73777;DHT22;62088;50.240;2.696;2022-12-29T14:34:52;9.30;77.90
73777;DHT22;62088;50.240;2.696;2022-12-29T14:37:32;9.30;77.00
73777;DHT22;62088;50.240;2.696;2022-12-29T14:42:31;9.10;76.80
73777;DHT22;62088;50.240;2.696;2022-12-29T14:47:50;9.00;77.50
73777;DHT22;62088;50.240;2.696;2022-12-29T14:50:42;8.90;77.90
73777;DHT22;62088;50.240;2.696;2022-12-29T14:56:17;8.70;78.70
73777;DHT22;62088;50.240;2.696;2022-12-29T14:58:50;8.60;79.30
73777;DHT22;62088;50.240;2.696;2022-12-29T15:04:05;8.50;80.00
73777;DHT22;62088;50.240;2.696;2022-12-29T15:06:40;8.50;80.20
73777;DHT22;62088;50.240;2.696;2022-12-29T15:09:24;8.40;80.60
73777;DHT22;62088;50.240;2.696;2022-12-29T15:12:00;8.40;80.70
73777;DHT22;62088;50.240;2.696;2022-12-29T15:14:48;8.40;81.00
73777;DHT22;62088;50.240;2.696;2022-12-29T15:17:27;8.40;81.00
73777;DHT22;62088;50.240;2.696;2022-12-29T15:19:56;8.40;81.00
73777;DHT22;62088;50.240;2.696;2022-12-29T15:22:24;8.30;81.00
73777;DHT22;62088;50.240;2.696;2022-12-29T15:24:52;8.30;81.00
73777;DHT22;62088;50.240;2.696;2022-12-29T15:27:24;8.30;81.10
73777;DHT22;62088;50.240;2.696;2022-12-29T15:30:00;8.30;81.10
73777;DHT22;62088;50.240;2.696;2022-12-29T15:32:43;8.30;81.20
73777;DHT22;62088;50.240;2.696;2022-12-29T15:35:29;8.30;81.20
73777;DHT22;62088;50.240;2.696;2022-12-29T15:37:57;8.30;81.30
73777;DHT22;62088;50.240;2.696;2022-12-29T16:05:17;8.00;81.70
73777;DHT22;62088;50.240;2.696;2022-12-29T16:07:56;8.00;82.10
73777;DHT22;62088;50.240;2.696;2022-12-29T16:10:37;8.10;82.00
73777;DHT22;62088;50.240;2.696;2022-12-29T16:13:33;8.10;81.90
73777;DHT22;62088;50.240;2.696;2022-12-29T16:16:19;8.10;81.80
73777;DHT22;62088;50.240;2.696;2022-12-29T16:18:47;8.10;81.80
73777;DHT22;62088;50.240;2.696;2022-12-29T16:21:34;8.10;81.70
73777;DHT22;62088;50.240;2.696;2022-12-29T16:24:06;8.10;81.60
73777;DHT22;62088;50.240;2.696;2022-12-29T16:26:33;8.10;81.60
73777;DHT22;62088;50.240;2.696;2022-12-29T16:29:04;8.10;81.40
73777;DHT22;62088;50.240;2.696;2022-12-29T16:31:52;8.10;81.40
73777;DHT22;62088;50.240;2.696;2022-12-29T16:34:24;8.10;81.50
73777;DHT22;62088;50.240;2.696;2022-12-29T16:36:54;8.10;81.50
73777;DHT22;62088;50.240;2.696;2022-12-29T16:54:55;8.20;81.10
73777;DHT22;62088;50.240;2.696;2022-12-29T16:57:28;8.20;80.00
73777;DHT22;62088;50.240;2.696;2022-12-29T17:00:00;8.20;80.10
73777;DHT22;62088;50.240;2.696;2022-12-29T17:02:29;8.10;80.20
73777;DHT22;62088;50.240;2.696;2022-12-29T17:04:57;8.10;80.20
73777;DHT22;62088;50.240;2.696;2022-12-29T17:07:26;8.10;80.40
73777;DHT22;62088;50.240;2.696;2022-12-29T17:09:54;8.00;80.40
73777;DHT22;62088;50.240;2.696;2022-12-29T17:12:24;8.00;80.60
73777;DHT22;62088;50.240;2.696;2022-12-29T17:14:57;7.90;80.60
73777;DHT22;62088;50.240;2.696;2022-12-29T17:17:39;7.90;80.70
73777;DHT22;62088;50.240;2.696;2022-12-29T17:22:46;7.90;80.90
73777;DHT22;62088;50.240;2.696;2022-12-29T17:25:28;7.80;81.00
73777;DHT22;62088;50.240;2.696;2022-12-29T17:28:11;7.80;81.10
73777;DHT22;62088;50.240;2.696;2022-12-29T17:30:39;7.80;81.20
73777;DHT22;62088;50.240;2.696;2022-12-29T17:33:11;7.80;81.20
73777;DHT22;62088;50.240;2.696;2022-12-29T17:35:39;7.70;81.20
73777;DHT22;62088;50.240;2.696;2022-12-29T17:38:22;7.70;81.20
73777;DHT22;62088;50.240;2.696;2022-12-29T17:40:49;7.70;81.20
73777;DHT22;62088;50.240;2.696;2022-12-29T17:43:17;7.60;81.10
73777;DHT22;62088;50.240;2.696;2022-12-29T17:45:48;7.60;81.10
73777;DHT22;62088;50.240;2.696;2022-12-29T17:48:17;7.60;81.10
73777;DHT22;62088;50.240;2.696;2022-12-29T17:50:47;7.50;81.10
73777;DHT22;62088;50.240;2.696;2022-12-29T17:53:22;7.50;81.10
73777;DHT22;62088;50.240;2.696;2022-12-29T17:55:50;7.50;81.20
73777;DHT22;62088;50.240;2.696;2022-12-29T17:58:22;7.40;81.20
73777;DHT22;62088;50.240;2.696;2022-12-29T18:00:52;7.40;81.30
73777;DHT22;62088;50.240;2.696;2022-12-29T18:03:27;7.40;81.30
73777;DHT22;62088;50.240;2.696;2022-12-29T18:22:45;7.20;81.30
73777;DHT22;62088;50.240;2.696;2022-12-29T18:27:56;7.30;81.30
73777;DHT22;62088;50.240;2.696;2022-12-29T18:30:23;7.30;81.30
73777;DHT22;62088;50.240;2.696;2022-12-29T18:32:50;7.30;81.20
73777;DHT22;62088;50.240;2.696;2022-12-29T18:35:37;7.30;81.20
73777;DHT22;62088;50.240;2.696;2022-12-29T18:38:05;7.30;81.20
73777;DHT22;62088;50.240;2.696;2022-12-29T18:40:33;7.30;81.20
73777;DHT22;62088;50.240;2.696;2022-12-29T18:43:00;7.30;81.20
73777;DHT22;62088;50.240;2.696;2022-12-29T18:45:30;7.30;81.20
73777;DHT22;62088;50.240;2.696;2022-12-29T18:48:01;7.20;81.30
73777;DHT22;62088;50.240;2.696;2022-12-29T18:50:28;7.20;81.30
73777;DHT22;62088;50.240;2.696;2022-12-29T18:52:55;7.30;81.40
73777;DHT22;62088;50.240;2.696;2022-12-29T18:55:29;7.20;81.50
73777;DHT22;62088;50.240;2.696;2022-12-29T18:57:56;7.30;81.50
73777;DHT22;62088;50.240;2.696;2022-12-29T19:00:24;7.20;81.60
73777;DHT22;62088;50.240;2.696;2022-12-29T19:02:51;7.30;81.60
73777;DHT22;62088;50.240;2.696;2022-12-29T19:05:25;7.30;81.60
73777;DHT22;62088;50.240;2.696;2022-12-29T19:07:52;7.30;81.60
73777;DHT22;62088;50.240;2.696;2022-12-29T19:10:21;7.30;81.60
73777;DHT22;62088;50.240;2.696;2022-12-29T19:12:49;7.30;81.50
73777;DHT22;62088;50.240;2.696;2022-12-29T19:15:34;7.40;81.50
73777;DHT22;62088;50.240;2.696;2022-12-29T19:18:04;7.30;81.60
73777;DHT22;62088;50.240;2.696;2022-12-29T19:20:53;7.30;81.60
73777;DHT22;62088;50.240;2.696;2022-12-29T19:23:22;7.40;81.60
73777;DHT22;62088;50.240;2.696;2022-12-29T19:25:50;7.40;81.60
73777;DHT22;62088;50.240;2.696;2022-12-29T19:28:24;7.40;81.70
73777;DHT22;62088;50.240;2.696;2022-12-29T19:30:53;7.40;81.70